sensor_id;sensor_type;location;lat;lon;timestamp;P1;durP1;ratioP1;P2;durP2;ratioP2
63406;SDS011;49543;45.892;10.838;2023-04-03T14:12:48;6.73;;;4.40;;
63406;SDS011;49543;45.892;10.838;2023-04-03T14:17:49;9.60;;;4.53;;
63406;SDS011;49543;45.892;10.838;2023-04-03T14:20:17;7.90;;;4.40;;
63406;SDS011;49543;45.892;10.838;2023-04-03T14:22:45;7.63;;;4.47;;
63406;SDS011;49543;45.892;10.838;2023-04-03T14:25:11;7.75;;;4.03;;
63406;SDS011;49543;45.892;10.838;2023-04-03T14:27:38;7.22;;;4.45;;
63406;SDS011;49543;45.892;10.838;2023-04-03T14:30:08;7.07;;;4.32;;
63406;SDS011;49543;45.892;10.838;2023-04-03T14:32:38;13.55;;;4.68;;
63406;SDS011;49543;45.892;10.838;2023-04-03T14:35:04;9.23;;;4.05;;
63406;SDS011;49543;45.892;10.838;2023-04-03T14:37:30;7.80;;;3.60;;
63406;SDS011;49543;45.892;10.838;2023-04-03T14:39:57;7.00;;;3.97;;
63406;SDS011;49543;45.892;10.838;2023-04-03T14:42:26;8.35;;;3.67;;
63406;SDS011;49543;45.892;10.838;2023-04-03T14:44:53;7.35;;;4.57;;
63406;SDS011;49543;45.892;10.838;2023-04-03T14:47:19;7.60;;;4.22;;
63406;SDS011;49543;45.892;10.838;2023-04-03T14:49:47;7.38;;;3.92;;
63406;SDS011;49543;45.892;10.838;2023-04-03T14:52:21;7.22;;;4.25;;
63406;SDS011;49543;45.892;10.838;2023-04-03T14:57:27;7.63;;;4.45;;
63406;SDS011;49543;45.892;10.838;2023-04-03T14:59:55;7.13;;;3.95;;
63406;SDS011;49543;45.892;10.838;2023-04-03T15:04:54;6.78;;;3.88;;
63406;SDS011;49543;45.892;10.838;2023-04-03T15:07:20;6.95;;;4.15;;
63406;SDS011;49543;45.892;10.838;2023-04-03T15:09:45;6.32;;;4.30;;
63406;SDS011;49543;45.892;10.838;2023-04-03T15:12:11;5.72;;;3.78;;
63406;SDS011;49543;45.892;10.838;2023-04-03T15:14:37;6.18;;;3.92;;
63406;SDS011;49543;45.892;10.838;2023-04-03T15:17:04;4.93;;;4.03;;
63406;SDS011;49543;45.892;10.838;2023-04-03T15:19:39;4.88;;;3.75;;
63406;SDS011;49543;45.892;10.838;2023-04-03T15:22:04;7.95;;;3.60;;
63406;SDS011;49543;45.892;10.838;2023-04-03T15:24:30;5.75;;;3.90;;
63406;SDS011;49543;45.892;10.838;2023-04-03T15:26:56;12.30;;;3.90;;
63406;SDS011;49543;45.892;10.838;2023-04-03T15:29:21;10.13;;;3.65;;
63406;SDS011;49543;45.892;10.838;2023-04-03T15:31:47;7.35;;;3.33;;
63406;SDS011;49543;45.892;10.838;2023-04-03T15:34:14;5.85;;;3.75;;
63406;SDS011;49543;45.892;10.838;2023-04-03T15:36:41;4.00;;;3.60;;
63406;SDS011;49543;45.892;10.838;2023-04-03T15:39:09;4.57;;;3.65;;
63406;SDS011;49543;45.892;10.838;2023-04-03T15:41:35;6.55;;;3.65;;
63406;SDS011;49543;45.892;10.838;2023-04-03T15:44:00;8.52;;;3.70;;
63406;SDS011;49543;45.892;10.838;2023-04-03T15:46:25;5.28;;;4.13;;
63406;SDS011;49543;45.892;10.838;2023-04-03T15:48:51;7.55;;;3.63;;
63406;SDS011;49543;45.892;10.838;2023-04-03T15:51:17;4.70;;;3.10;;
63406;SDS011;49543;45.892;10.838;2023-04-03T15:53:42;5.40;;;3.70;;
63406;SDS011;49543;45.892;10.838;2023-04-03T15:56:08;7.63;;;3.35;;
63406;SDS011;49543;45.892;10.838;2023-04-03T15:58:34;6.70;;;3.83;;
63406;SDS011;49543;45.892;10.838;2023-04-03T16:01:00;6.82;;;3.80;;
63406;SDS011;49543;45.892;10.838;2023-04-03T16:03:27;5.22;;;3.65;;
63406;SDS011;49543;45.892;10.838;2023-04-03T16:05:52;8.25;;;4.00;;
63406;SDS011;49543;45.892;10.838;2023-04-03T16:08:18;6.25;;;3.53;;
63406;SDS011;49543;45.892;10.838;2023-04-03T16:10:44;6.90;;;3.85;;
63406;SDS011;49543;45.892;10.838;2023-04-03T16:13:12;8.55;;;4.65;;
63406;SDS011;49543;45.892;10.838;2023-04-03T16:15:38;8.20;;;4.78;;
63406;SDS011;49543;45.892;10.838;2023-04-03T16:18:04;12.10;;;7.00;;
63406;SDS011;49543;45.892;10.838;2023-04-03T16:20:30;17.45;;;7.93;;
63406;SDS011;49543;45.892;10.838;2023-04-03T16:22:57;10.98;;;6.35;;
63406;SDS011;49543;45.892;10.838;2023-04-03T16:25:25;7.55;;;4.13;;
63406;SDS011;49543;45.892;10.838;2023-04-03T16:27:51;6.78;;;3.67;;
63406;SDS011;49543;45.892;10.838;2023-04-03T16:30:17;8.95;;;3.83;;
63406;SDS011;49543;45.892;10.838;2023-04-03T16:32:43;7.65;;;3.70;;
63406;SDS011;49543;45.892;10.838;2023-04-03T16:35:10;6.90;;;3.53;;
63406;SDS011;49543;45.892;10.838;2023-04-03T16:37:36;5.00;;;3.38;;
63406;SDS011;49543;45.892;10.838;2023-04-03T16:40:02;5.20;;;2.88;;
63406;SDS011;49543;45.892;10.838;2023-04-03T16:42:30;5.13;;;3.10;;
63406;SDS011;49543;45.892;10.838;2023-04-03T16:44:55;5.75;;;3.58;;
63406;SDS011;49543;45.892;10.838;2023-04-03T16:47:21;5.15;;;2.75;;
63406;SDS011;49543;45.892;10.838;2023-04-03T16:49:46;6.13;;;3.65;;
63406;SDS011;49543;45.892;10.838;2023-04-03T16:52:12;4.63;;;3.58;;
63406;SDS011;49543;45.892;10.838;2023-04-03T16:54:37;6.38;;;3.15;;
63406;SDS011;49543;45.892;10.838;2023-04-03T16:57:03;4.95;;;2.80;;
63406;SDS011;49543;45.892;10.838;2023-04-03T16:59:28;3.85;;;2.92;;
63406;SDS011;49543;45.892;10.838;2023-04-03T17:01:54;5.63;;;3.30;;
63406;SDS011;49543;45.892;10.838;2023-04-03T17:04:19;3.25;;;2.90;;
63406;SDS011;49543;45.892;10.838;2023-04-03T17:06:45;6.38;;;3.33;;
63406;SDS011;49543;45.892;10.838;2023-04-03T17:09:11;4.28;;;3.40;;
63406;SDS011;49543;45.892;10.838;2023-04-03T17:11:37;6.70;;;5.35;;
63406;SDS011;49543;45.892;10.838;2023-04-03T17:14:03;8.85;;;4.90;;
63406;SDS011;49543;45.892;10.838;2023-04-03T17:16:29;6.70;;;3.63;;
63406;SDS011;49543;45.892;10.838;2023-04-03T17:18:55;4.82;;;3.38;;
63406;SDS011;49543;45.892;10.838;2023-04-03T17:21:21;7.30;;;3.47;;
63406;SDS011;49543;45.892;10.838;2023-04-03T17:23:49;4.47;;;2.92;;
63406;SDS011;49543;45.892;10.838;2023-04-03T17:26:18;4.47;;;3.00;;
63406;SDS011;49543;45.892;10.838;2023-04-03T17:28:45;7.28;;;3.47;;
63406;SDS011;49543;45.892;10.838;2023-04-03T17:31:11;6.45;;;3.40;;
63406;SDS011;49543;45.892;10.838;2023-04-03T17:33:37;3.45;;;2.80;;
63406;SDS011;49543;45.892;10.838;2023-04-03T17:36:02;4.57;;;2.80;;
63406;SDS011;49543;45.892;10.838;2023-04-03T17:38:29;3.78;;;3.20;;
63406;SDS011;49543;45.892;10.838;2023-04-03T17:40:59;7.15;;;2.80;;
63406;SDS011;49543;45.892;10.838;2023-04-03T17:43:25;3.97;;;2.90;;
63406;SDS011;49543;45.892;10.838;2023-04-03T17:45:51;2.78;;;2.47;;
63406;SDS011;49543;45.892;10.838;2023-04-03T17:48:16;3.78;;;3.10;;
63406;SDS011;49543;45.892;10.838;2023-04-03T17:50:42;3.63;;;2.90;;
63406;SDS011;49543;45.892;10.838;2023-04-03T17:53:08;7.53;;;3.35;;
63406;SDS011;49543;45.892;10.838;2023-04-03T17:55:36;6.20;;;3.17;;
63406;SDS011;49543;45.892;10.838;2023-04-03T17:58:02;3.17;;;2.65;;
63406;SDS011;49543;45.892;10.838;2023-04-03T18:00:28;5.65;;;3.67;;
63406;SDS011;49543;45.892;10.838;2023-04-03T18:02:53;5.18;;;3.08;;
63406;SDS011;49543;45.892;10.838;2023-04-03T18:05:19;5.47;;;3.42;;
63406;SDS011;49543;45.892;10.838;2023-04-03T18:07:45;3.22;;;2.85;;
63406;SDS011;49543;45.892;10.838;2023-04-03T18:10:11;3.60;;;2.75;;
63406;SDS011;49543;45.892;10.838;2023-04-03T18:12:38;6.35;;;3.55;;
63406;SDS011;49543;45.892;10.838;2023-04-03T18:15:06;7.68;;;3.58;;
63406;SDS011;49543;45.892;10.838;2023-04-03T18:17:32;5.07;;;3.40;;
63406;SDS011;49543;45.892;10.838;2023-04-03T18:19:57;4.00;;;3.10;;
63406;SDS011;49543;45.892;10.838;2023-04-03T18:22:23;4.43;;;2.83;;
63406;SDS011;49543;45.892;10.838;2023-04-03T18:24:49;4.50;;;3.40;;
63406;SDS011;49543;45.892;10.838;2023-04-03T18:27:20;5.55;;;3.88;;
63406;SDS011;49543;45.892;10.838;2023-04-03T18:29:51;8.95;;;3.72;;
63406;SDS011;49543;45.892;10.838;2023-04-03T18:32:19;7.20;;;3.75;;
63406;SDS011;49543;45.892;10.838;2023-04-03T18:34:46;4.85;;;3.78;;
63406;SDS011;49543;45.892;10.838;2023-04-03T18:37:11;9.07;;;4.10;;
63406;SDS011;49543;45.892;10.838;2023-04-03T18:39:37;5.35;;;3.50;;
63406;SDS011;49543;45.892;10.838;2023-04-03T18:42:04;4.70;;;3.67;;
63406;SDS011;49543;45.892;10.838;2023-04-03T18:46:58;5.05;;;3.30;;
63406;SDS011;49543;45.892;10.838;2023-04-03T18:49:25;6.55;;;3.60;;
63406;SDS011;49543;45.892;10.838;2023-04-03T18:51:53;5.70;;;3.45;;
63406;SDS011;49543;45.892;10.838;2023-04-03T18:54:19;6.95;;;3.17;;
63406;SDS011;49543;45.892;10.838;2023-04-03T18:56:45;6.13;;;3.33;;
63406;SDS011;49543;45.892;10.838;2023-04-03T18:59:11;6.22;;;3.78;;
63406;SDS011;49543;45.892;10.838;2023-04-03T19:01:37;4.97;;;3.10;;
63406;SDS011;49543;45.892;10.838;2023-04-03T19:04:03;5.03;;;3.10;;
63406;SDS011;49543;45.892;10.838;2023-04-03T19:06:28;4.55;;;3.22;;
63406;SDS011;49543;45.892;10.838;2023-04-03T19:08:54;4.60;;;3.20;;
63406;SDS011;49543;45.892;10.838;2023-04-03T19:11:20;8.52;;;3.13;;
63406;SDS011;49543;45.892;10.838;2023-04-03T19:13:45;4.93;;;3.28;;
63406;SDS011;49543;45.892;10.838;2023-04-03T19:16:11;3.75;;;3.35;;
63406;SDS011;49543;45.892;10.838;2023-04-03T19:18:37;4.93;;;3.28;;
63406;SDS011;49543;45.892;10.838;2023-04-03T19:21:02;6.45;;;3.00;;
63406;SDS011;49543;45.892;10.838;2023-04-03T19:23:28;5.35;;;3.35;;
63406;SDS011;49543;45.892;10.838;2023-04-03T19:25:57;5.13;;;3.33;;
63406;SDS011;49543;45.892;10.838;2023-04-03T19:28:25;3.40;;;3.10;;
63406;SDS011;49543;45.892;10.838;2023-04-03T19:30:50;5.60;;;3.67;;
63406;SDS011;49543;45.892;10.838;2023-04-03T19:33:17;3.83;;;3.20;;
63406;SDS011;49543;45.892;10.838;2023-04-03T19:35:43;5.60;;;3.70;;
63406;SDS011;49543;45.892;10.838;2023-04-03T19:38:08;3.67;;;2.72;;
63406;SDS011;49543;45.892;10.838;2023-04-03T19:40:34;4.13;;;3.15;;
63406;SDS011;49543;45.892;10.838;2023-04-03T19:43:01;4.65;;;3.20;;
63406;SDS011;49543;45.892;10.838;2023-04-03T19:45:27;6.00;;;2.85;;
63406;SDS011;49543;45.892;10.838;2023-04-03T19:47:54;5.13;;;3.10;;
63406;SDS011;49543;45.892;10.838;2023-04-03T19:50:23;4.57;;;3.30;;
63406;SDS011;49543;45.892;10.838;2023-04-03T19:52:48;3.83;;;2.97;;
63406;SDS011;49543;45.892;10.838;2023-04-03T19:55:14;3.20;;;2.90;;
63406;SDS011;49543;45.892;10.838;2023-04-03T19:57:40;3.55;;;3.05;;
63406;SDS011;49543;45.892;10.838;2023-04-03T20:05:16;3.92;;;2.95;;
63406;SDS011;49543;45.892;10.838;2023-04-03T20:07:41;3.83;;;2.90;;
63406;SDS011;49543;45.892;10.838;2023-04-03T20:10:07;5.50;;;3.22;;
63406;SDS011;49543;45.892;10.838;2023-04-03T20:12:33;6.18;;;3.00;;
63406;SDS011;49543;45.892;10.838;2023-04-03T20:15:02;9.03;;;3.67;;
63406;SDS011;49543;45.892;10.838;2023-04-03T20:17:31;5.70;;;3.53;;
63406;SDS011;49543;45.892;10.838;2023-04-03T20:19:57;5.57;;;3.42;;
63406;SDS011;49543;45.892;10.838;2023-04-03T20:22:25;4.97;;;3.50;;
63406;SDS011;49543;45.892;10.838;2023-04-03T20:24:54;4.22;;;3.35;;
63406;SDS011;49543;45.892;10.838;2023-04-03T20:27:20;5.18;;;3.20;;
63406;SDS011;49543;45.892;10.838;2023-04-03T20:29:46;5.85;;;3.05;;
63406;SDS011;49543;45.892;10.838;2023-04-03T20:32:12;4.05;;;3.22;;
63406;SDS011;49543;45.892;10.838;2023-04-03T20:34:38;3.63;;;2.63;;
63406;SDS011;49543;45.892;10.838;2023-04-03T20:37:04;4.20;;;3.35;;
63406;SDS011;49543;45.892;10.838;2023-04-03T20:39:30;5.63;;;2.42;;
63406;SDS011;49543;45.892;10.838;2023-04-03T20:41:56;3.03;;;2.10;;
63406;SDS011;49543;45.892;10.838;2023-04-03T20:44:21;3.15;;;2.20;;
63406;SDS011;49543;45.892;10.838;2023-04-03T20:46:47;3.35;;;1.90;;
63406;SDS011;49543;45.892;10.838;2023-04-03T20:49:12;2.65;;;1.60;;
63406;SDS011;49543;45.892;10.838;2023-04-03T20:51:38;2.75;;;1.80;;
63406;SDS011;49543;45.892;10.838;2023-04-03T20:54:04;2.28;;;1.40;;
63406;SDS011;49543;45.892;10.838;2023-04-03T20:56:31;2.42;;;1.40;;
63406;SDS011;49543;45.892;10.838;2023-04-03T20:58:59;1.50;;;1.38;;
63406;SDS011;49543;45.892;10.838;2023-04-03T21:01:29;1.25;;;1.15;;
63406;SDS011;49543;45.892;10.838;2023-04-03T21:03:58;1.30;;;1.20;;
63406;SDS011;49543;45.892;10.838;2023-04-03T21:20:52;1.02;;;1.00;;
63406;SDS011;49543;45.892;10.838;2023-04-03T21:23:19;1.10;;;1.00;;
63406;SDS011;49543;45.892;10.838;2023-04-03T21:25:45;1.45;;;1.17;;
63406;SDS011;49543;45.892;10.838;2023-04-03T21:28:10;2.05;;;1.10;;
63406;SDS011;49543;45.892;10.838;2023-04-03T21:30:36;1.65;;;1.20;;
63406;SDS011;49543;45.892;10.838;2023-04-03T21:33:02;2.40;;;1.10;;
63406;SDS011;49543;45.892;10.838;2023-04-03T21:35:27;1.33;;;1.23;;
63406;SDS011;49543;45.892;10.838;2023-04-03T21:37:52;1.33;;;1.10;;
63406;SDS011;49543;45.892;10.838;2023-04-03T21:40:18;1.10;;;1.00;;
63406;SDS011;49543;45.892;10.838;2023-04-03T21:42:43;1.30;;;1.20;;
63406;SDS011;49543;45.892;10.838;2023-04-03T21:45:09;2.33;;;1.10;;
63406;SDS011;49543;45.892;10.838;2023-04-03T21:47:34;1.20;;;1.10;;
63406;SDS011;49543;45.892;10.838;2023-04-03T21:50:00;1.20;;;1.10;;
